Time;durP1;ratioP1;P1;durP2;ratioP2;P2;SDS_P1;SDS_P2;PMS_P1;PMS_P2;Temp;Humidity;BMP_temperature;BMP_pressure;BME280_temperature;BME280_humidity;BME280_pressure;Samples;Min_cycle;Max_cycle;Signal;HPM_P1;HPM_P2
2022/04/23 00:01:59;;;;;;;3.55;3.25;;;;;;;9.14;73.06;99206.03;1733442;82;21686;-51
2022/04/23 00:04:28;;;;;;;3.15;2.87;;;;;;;9.10;73.12;99198.59;1734783;82;21033;-51
2022/04/23 00:06:54;;;;;;;3.30;2.40;;;;;;;9.10;73.24;99193.73;1735409;82;21086;-50
2022/04/23 00:09:22;;;;;;;2.72;2.52;;;;;;;9.10;73.12;99193.22;1735327;82;21113;-53
2022/04/23 00:11:49;;;;;;;3.20;2.95;;;;;;;9.09;73.14;99189.30;1735490;82;21571;-50
2022/04/23 00:14:17;;;;;;;2.80;2.60;;;;;;;9.08;73.09;99194.27;1735231;82;21094;-50
2022/04/23 00:16:45;;;;;;;3.35;2.52;;;;;;;9.05;73.18;99192.59;1735099;82;21429;-52
2022/04/23 00:19:12;;;;;;;3.08;2.85;;;;;;;9.02;73.33;99198.11;1734701;81;21656;-52
2022/04/23 00:21:39;;;;;;;5.15;3.30;;;;;;;9.01;73.49;99199.56;1734389;82;21065;-52
2022/04/23 00:24:06;;;;;;;3.37;3.08;;;;;;;8.98;73.75;99200.57;1735362;82;21100;-52
2022/04/23 00:26:34;;;;;;;6.80;3.15;;;;;;;8.98;73.97;99188.97;1738002;81;20894;-52
2022/04/23 00:29:00;;;;;;;4.45;2.30;;;;;;;8.95;74.07;99175.22;1743078;81;21519;-51
2022/04/23 00:31:27;;;;;;;2.90;2.70;;;;;;;8.92;74.27;99177.20;1742607;81;21018;-52
2022/04/23 00:33:55;;;;;;;3.27;2.98;;;;;;;8.87;74.44;99181.45;1744446;81;21081;-51
2022/04/23 00:36:23;;;;;;;5.30;3.30;;;;;;;8.83;74.63;99174.98;1742564;81;21168;-48
2022/04/23 00:38:52;;;;;;;2.98;2.75;;;;;;;8.79;74.88;99164.86;1742241;81;22272;-51
2022/04/23 00:44:05;;;;;;;3.75;1.85;;;;;;;8.77;75.26;99154.67;1744905;81;21021;-50
2022/04/23 00:46:33;;;;;;;2.42;1.82;;;;;;;8.75;75.49;99144.98;1741157;81;21419;-49
2022/04/23 00:49:00;;;;;;;2.52;2.33;;;;;;;8.74;75.67;99150.82;1742687;81;22295;-49
2022/04/23 00:51:30;;;;;;;2.77;2.55;;;;;;;8.73;75.75;99151.77;1743061;81;21146;-50
2022/04/23 00:53:57;;;;;;;4.55;2.67;;;;;;;8.71;75.92;99152.30;1709854;83;21436;-52
2022/04/23 00:56:23;;;;;;;2.83;2.62;;;;;;;8.70;76.00;99153.25;1741946;81;21328;-51
2022/04/23 00:58:50;;;;;;;4.65;2.50;;;;;;;8.67;76.08;99161.47;1742778;80;21136;-52
2022/04/23 01:01:23;;;;;;;1.92;1.82;;;;;;;8.63;76.19;99162.08;1741969;81;20973;-51
2022/04/23 01:03:50;;;;;;;1.60;1.40;;;;;;;8.62;76.25;99158.12;1743952;81;21374;-52
2022/04/23 01:06:18;;;;;;;2.00;1.80;;;;;;;8.61;76.37;99153.70;1745539;81;21403;-49
2022/04/23 01:08:46;;;;;;;4.87;1.55;;;;;;;8.59;76.45;99147.57;1745791;81;20993;-53
2022/04/23 01:11:14;;;;;;;2.15;1.98;;;;;;;8.59;76.50;99150.25;1743413;81;21159;-50
2022/04/23 01:13:44;;;;;;;2.67;2.08;;;;;;;8.58;76.44;99145.83;1744279;82;21116;-52
2022/04/23 01:16:10;;;;;;;3.60;1.90;;;;;;;8.57;76.45;99140.06;1744008;81;21121;-52
2022/04/23 01:18:41;;;;;;;2.05;1.87;;;;;;;8.54;76.50;99142.41;1744055;81;21480;-53
2022/04/23 01:21:10;;;;;;;2.95;1.62;;;;;;;8.51;76.50;99139.87;1744157;82;21050;-52
2022/04/23 01:23:41;;;;;;;1.70;1.35;;;;;;;8.46;76.51;99135.69;1746538;82;20945;-52
2022/04/23 01:26:09;;;;;;;2.77;1.67;;;;;;;8.43;76.63;99139.85;1747376;82;21383;-52
2022/04/23 01:28:36;;;;;;;2.37;1.37;;;;;;;8.41;76.73;99140.42;1742480;82;21834;-52
2022/04/23 01:31:04;;;;;;;1.75;0.90;;;;;;;8.38;76.72;99129.84;1742187;82;21058;-51
2022/04/23 01:33:33;;;;;;;2.62;1.25;;;;;;;8.35;76.79;99129.51;1741698;82;21033;-52
2022/04/23 01:36:00;;;;;;;2.75;1.00;;;;;;;8.33;76.82;99121.56;1740231;82;21093;-52
2022/04/23 01:38:28;;;;;;;1.75;1.55;;;;;;;8.33;76.83;99128.27;1739940;82;21045;-52
2022/04/23 01:40:55;;;;;;;1.30;1.10;;;;;;;8.32;76.91;99132.36;1742993;82;20939;-52
2022/04/23 01:43:21;;;;;;;1.15;0.90;;;;;;;8.29;76.97;99133.33;1741173;82;21381;-53
2022/04/23 01:45:48;;;;;;;3.27;1.30;;;;;;;8.30;77.03;99123.48;1740274;82;21379;-52
2022/04/23 01:48:14;;;;;;;4.67;1.00;;;;;;;8.28;77.08;99119.52;1742170;82;20961;-52
2022/04/23 01:50:42;;;;;;;1.60;1.20;;;;;;;8.27;77.06;99120.94;1741962;82;20919;-51
2022/04/23 01:53:09;;;;;;;1.45;1.35;;;;;;;8.25;77.08;99114.30;1741126;82;21089;-52
2022/04/23 01:55:35;;;;;;;2.17;1.30;;;;;;;8.23;77.24;99120.23;1743366;82;20906;-52
2022/04/23 01:58:03;;;;;;;4.78;1.50;;;;;;;8.20;77.22;99116.82;1740829;81;21178;-53
2022/04/23 02:00:30;;;;;;;1.20;1.10;;;;;;;8.17;77.43;99119.17;1741178;82;21037;-53
2022/04/23 02:02:57;;;;;;;0.98;0.90;;;;;;;8.16;77.58;99120.61;1742395;82;20954;-50
2022/04/23 02:05:24;;;;;;;2.70;0.95;;;;;;;8.13;77.78;99120.28;1741426;82;21121;-51
2022/04/23 02:07:50;;;;;;;1.10;1.00;;;;;;;8.11;77.98;99111.91;1741125;82;21887;-53
2022/04/23 02:10:17;;;;;;;1.07;0.98;;;;;;;8.11;78.23;99106.55;1741465;82;21131;-51
2022/04/23 02:12:45;;;;;;;1.67;1.27;;;;;;;8.12;78.53;99109.63;1741367;82;21061;-52
2022/04/23 02:15:14;;;;;;;1.65;1.10;;;;;;;8.10;78.77;99096.76;1741315;82;21097;-53
2022/04/23 02:17:43;;;;;;;1.60;1.30;;;;;;;8.07;78.95;99103.16;1741647;82;21552;-52
2022/04/23 02:20:13;;;;;;;1.77;1.20;;;;;;;8.02;79.19;99109.20;1740634;82;21071;-52
2022/04/23 02:22:40;;;;;;;9.40;4.60;;;;;;;7.99;79.41;99119.58;1741593;82;21486;-52
2022/04/23 02:25:07;;;;;;;2.77;2.05;;;;;;;7.97;79.63;99113.45;1742724;82;20906;-53
2022/04/23 02:27:47;;;;;;;1.65;1.55;;;;;;;7.97;79.86;99110.77;1736373;81;20995;-52
2022/04/23 02:30:20;;;;;;;3.00;1.85;;;;;;;7.95;79.89;99114.45;1719894;82;21120;-52
2022/04/23 02:32:49;;;;;;;3.53;1.40;;;;;;;7.94;79.94;99112.71;1720440;82;21415;-52
2022/04/23 02:35:16;;;;;;;3.12;1.80;;;;;;;7.92;80.04;99122.16;1719404;82;21643;-51
2022/04/23 02:37:47;;;;;;;1.82;1.10;;;;;;;7.90;80.08;99125.41;1723018;82;20938;-52
2022/04/23 02:40:14;;;;;;;3.10;0.82;;;;;;;7.89;80.19;99125.48;1719140;82;22071;-53
2022/04/23 02:42:41;;;;;;;2.35;1.25;;;;;;;7.87;80.25;99126.88;1727505;82;21512;-52
2022/04/23 02:45:09;;;;;;;1.70;0.90;;;;;;;7.87;80.26;99127.35;1720758;82;21105;-53
2022/04/23 02:47:46;;;;;;;1.20;1.07;;;;;;;7.88;80.26;99135.79;1720226;82;20916;-52
2022/04/23 02:50:15;;;;;;;1.75;1.07;;;;;;;7.87;80.24;99135.39;1723452;82;21079;-52
2022/04/23 02:52:43;;;;;;;2.22;1.00;;;;;;;7.85;80.38;99109.13;1722714;82;21037;-53
2022/04/23 02:55:11;;;;;;;2.95;1.40;;;;;;;7.86;80.25;99120.25;1721438;82;21493;-53
2022/04/23 02:57:42;;;;;;;1.92;1.05;;;;;;;7.83;80.28;99124.40;1725067;82;21167;-52
2022/04/23 03:00:12;;;;;;;1.42;1.17;;;;;;;7.81;80.41;99127.65;1725683;82;21122;-52
2022/04/23 03:02:40;;;;;;;1.20;1.10;;;;;;;7.80;80.58;99124.56;1723669;81;21003;-52
2022/04/23 03:05:14;;;;;;;1.47;1.10;;;;;;;7.78;80.71;99131.80;1731334;82;21049;-52
2022/04/23 03:07:41;;;;;;;2.25;0.93;;;;;;;7.77;80.84;99120.21;1719701;82;21914;-52
2022/04/23 03:10:12;;;;;;;1.42;1.07;;;;;;;7.78;80.96;99126.44;1714443;82;21564;-52
2022/04/23 03:12:40;;;;;;;1.50;0.90;;;;;;;7.75;80.98;99119.41;1722199;82;21126;-53
2022/04/23 03:15:11;;;;;;;1.10;1.00;;;;;;;7.74;81.10;99110.97;1721460;82;21359;-54
2022/04/23 03:17:37;;;;;;;3.27;1.92;;;;;;;7.72;81.17;99116.89;1719005;82;21393;-52
2022/04/23 03:20:08;;;;;;;1.30;1.00;;;;;;;7.70;81.25;99127.27;1724792;81;21291;-51
2022/04/23 03:22:40;;;;;;;1.00;0.90;;;;;;;7.67;81.34;99115.34;1723525;82;20991;-52
2022/04/23 03:25:09;;;;;;;3.02;1.42;;;;;;;7.65;81.45;99114.10;1728282;82;21314;-52
2022/04/23 03:27:36;;;;;;;2.15;0.90;;;;;;;7.66;81.57;99112.27;1723254;81;21059;-52
2022/04/23 03:30:04;;;;;;;3.47;1.30;;;;;;;7.64;81.70;99123.08;1670313;85;21073;-52
2022/04/23 03:32:32;;;;;;;2.47;1.35;;;;;;;7.63;81.71;99114.64;1672074;85;21218;-53
2022/04/23 03:35:01;;;;;;;3.00;1.40;;;;;;;7.63;81.75;99117.78;1643711;86;20973;-53
2022/04/23 03:37:29;;;;;;;2.50;1.10;;;;;;;7.63;81.76;99121.33;1649929;86;21375;-52
2022/04/23 03:39:56;;;;;;;1.72;1.30;;;;;;;7.62;81.79;99117.37;1707464;83;20921;-52
2022/04/23 03:42:23;;;;;;;2.45;1.10;;;;;;;7.59;81.88;99117.91;1706908;83;21760;-52
2022/04/23 03:44:50;;;;;;;2.95;1.27;;;;;;;7.57;81.95;99114.43;1706508;83;21137;-52
2022/04/23 03:47:17;;;;;;;1.75;1.00;;;;;;;7.58;82.01;99112.16;1705991;83;21046;-52
2022/04/23 03:49:44;;;;;;;1.85;1.20;;;;;;;7.59;81.99;99113.02;1706656;83;21559;-53
2022/04/23 03:52:10;;;;;;;2.07;1.00;;;;;;;7.58;81.99;99101.91;1707370;83;21049;-52
2022/04/23 03:54:38;;;;;;;3.65;1.10;;;;;;;7.57;81.91;99105.55;1706072;83;21486;-53
2022/04/23 03:57:05;;;;;;;1.20;0.90;;;;;;;7.58;81.89;99101.44;1707288;83;21149;-52
2022/04/23 03:59:35;;;;;;;1.45;1.35;;;;;;;7.60;81.86;99099.57;1705695;83;22190;-52
2022/04/23 04:02:04;;;;;;;1.90;0.90;;;;;;;7.62;81.79;99102.18;1706247;83;21627;-52
2022/04/23 04:04:33;;;;;;;2.80;1.10;;;;;;;7.65;81.73;99103.86;1704537;83;21039;-53
2022/04/23 04:07:01;;;;;;;1.20;1.00;;;;;;;7.66;81.63;99103.76;1706123;83;21683;-52
2022/04/23 04:09:29;;;;;;;2.02;1.00;;;;;;;7.68;81.65;99102.36;1705414;83;22388;-53
2022/04/23 04:12:01;;;;;;;1.37;1.02;;;;;;;7.69;81.68;99100.95;1706007;83;20921;-52
2022/04/23 04:14:32;;;;;;;1.55;1.37;;;;;;;7.72;81.62;99097.27;1706827;83;21129;-52
2022/04/23 04:17:02;;;;;;;1.30;1.10;;;;;;;7.73;81.42;99095.86;1707856;83;21049;-52
2022/04/23 04:19:32;;;;;;;2.50;1.42;;;;;;;7.75;81.31;99087.72;1705616;83;21503;-53
2022/04/23 04:22:03;;;;;;;2.20;1.10;;;;;;;7.78;81.23;99097.84;1707330;83;21022;-52
2022/04/23 04:24:31;;;;;;;1.20;1.00;;;;;;;7.80;81.02;99080.36;1703191;83;21548;-53
2022/04/23 04:26:58;;;;;;;2.60;1.00;;;;;;;7.83;80.91;99085.08;1705458;83;21025;-52
2022/04/23 04:29:25;;;;;;;3.72;1.20;;;;;;;7.87;80.76;99083.14;1733819;82;20883;-52
2022/04/23 04:31:53;;;;;;;2.27;1.27;;;;;;;7.90;80.61;99088.36;1738063;82;20919;-52
2022/04/23 04:34:24;;;;;;;2.60;1.10;;;;;;;7.95;80.56;99084.51;1738239;82;21417;-52
2022/04/23 04:36:51;;;;;;;1.37;0.98;;;;;;;7.99;80.40;99082.06;1737689;82;20951;-53
2022/04/23 04:39:19;;;;;;;2.72;1.10;;;;;;;8.03;80.12;99080.11;1734701;82;20903;-52
2022/04/23 04:41:50;;;;;;;1.72;1.30;;;;;;;8.07;79.96;99083.06;1735983;82;20907;-52
2022/04/23 04:44:14;;;;;;;3.05;1.32;;;;;;;8.10;79.76;99085.56;1735057;82;20942;-53
2022/04/23 04:46:41;;;;;;;1.90;0.98;;;;;;;8.12;79.68;99084.16;1737232;82;21117;-52
2022/04/23 04:49:08;;;;;;;1.25;1.00;;;;;;;8.13;79.44;99081.41;1736610;82;20987;-51
2022/04/23 04:51:36;;;;;;;1.60;1.05;;;;;;;8.17;79.21;99086.13;1736176;82;20942;-52
2022/04/23 04:54:04;;;;;;;1.75;1.00;;;;;;;8.19;79.18;99085.59;1737195;82;20942;-53
2022/04/23 04:56:32;;;;;;;2.45;1.10;;;;;;;8.22;79.02;99089.00;1737713;81;20915;-53
2022/04/23 04:59:04;;;;;;;1.27;1.02;;;;;;;8.24;79.00;99087.13;1736772;82;20951;-53
2022/04/23 05:01:32;;;;;;;1.50;1.27;;;;;;;8.27;79.08;99077.56;1737456;82;21404;-53
2022/04/23 05:04:00;;;;;;;1.50;1.20;;;;;;;8.32;79.05;99080.94;1737505;82;20962;-51
2022/04/23 05:06:27;;;;;;;1.57;1.12;;;;;;;8.37;78.98;99075.80;1736379;82;21409;-53
2022/04/23 05:08:54;;;;;;;2.40;1.12;;;;;;;8.42;78.61;99074.62;1738050;82;21375;-52
2022/04/23 05:11:22;;;;;;;1.40;0.90;;;;;;;8.46;78.52;99076.22;1735976;82;21483;-52
2022/04/23 05:13:48;;;;;;;1.62;1.00;;;;;;;8.51;78.51;99079.52;1736936;82;21333;-51
2022/04/23 05:16:15;;;;;;;1.77;1.20;;;;;;;8.57;78.35;99073.88;1737132;82;21018;-52
2022/04/23 05:18:43;;;;;;;3.00;1.12;;;;;;;8.63;78.11;99074.02;1737268;82;20950;-52
2022/04/23 05:21:11;;;;;;;1.40;1.30;;;;;;;8.66;77.94;99068.51;1733933;82;21033;-53
2022/04/23 05:23:37;;;;;;;1.72;1.57;;;;;;;8.69;77.93;99079.93;1735393;82;21144;-52
2022/04/23 05:26:04;;;;;;;2.27;1.42;;;;;;;8.72;77.72;99068.19;1737273;82;20989;-52
2022/04/23 05:28:32;;;;;;;3.70;1.20;;;;;;;8.72;77.51;99064.16;1734847;82;21005;-53
2022/04/23 05:31:01;;;;;;;1.65;1.12;;;;;;;8.73;77.54;99068.58;1701072;83;21427;-53
2022/04/23 05:33:29;;;;;;;1.80;1.15;;;;;;;8.77;77.64;99058.06;1736737;82;21042;-52
2022/04/23 05:35:56;;;;;;;2.08;1.20;;;;;;;8.80;77.43;99061.08;1736843;82;21836;-52
2022/04/23 05:38:23;;;;;;;2.87;1.35;;;;;;;8.83;77.41;99055.56;1736567;82;21077;-52
2022/04/23 05:40:51;;;;;;;1.37;1.17;;;;;;;8.86;77.46;99055.37;1735520;82;21026;-51
2022/04/23 05:43:17;;;;;;;1.50;1.40;;;;;;;8.88;77.44;99048.99;1734765;82;22065;-51
2022/04/23 05:45:44;;;;;;;1.52;1.25;;;;;;;8.91;77.16;99047.98;1735434;82;21073;-51
2022/04/23 05:50:51;;;;;;;1.60;1.50;;;;;;;8.98;77.13;99040.86;1830387;75;22470;-51
2022/04/23 05:53:18;;;;;;;1.80;1.57;;;;;;;8.99;77.12;99037.23;1804893;78;21656;-52
2022/04/23 05:55:44;;;;;;;2.95;1.95;;;;;;;9.04;77.21;99041.86;1798835;78;21153;-52
2022/04/23 05:58:11;;;;;;;2.02;1.60;;;;;;;9.11;77.20;99035.21;1782455;78;20943;-51
2022/04/23 06:00:39;;;;;;;1.60;1.25;;;;;;;9.18;76.93;99038.46;1777778;78;21006;-52
2022/04/23 06:03:06;;;;;;;1.80;1.52;;;;;;;9.28;76.93;99031.62;1776654;78;20977;-53
2022/04/23 06:05:34;;;;;;;2.08;1.30;;;;;;;9.40;76.80;99027.41;1774134;78;20993;-52
2022/04/23 06:08:01;;;;;;;2.05;1.65;;;;;;;9.52;76.40;99032.12;1773646;78;21176;-52
2022/04/23 06:10:29;;;;;;;2.08;1.87;;;;;;;9.64;76.17;99034.58;1774897;80;21433;-52
2022/04/23 06:12:57;;;;;;;2.58;2.35;;;;;;;9.74;75.79;99029.95;1775419;79;21020;-52
2022/04/23 06:15:25;;;;;;;2.47;1.55;;;;;;;9.84;75.53;99028.97;1776441;80;21124;-51
2022/04/23 06:17:52;;;;;;;5.20;1.85;;;;;;;9.96;75.21;99022.00;1775749;78;21671;-52
2022/04/23 06:20:19;;;;;;;4.42;1.30;;;;;;;10.03;74.90;99018.91;1777211;78;21112;-52
2022/04/23 06:22:47;;;;;;;1.72;1.40;;;;;;;10.11;74.43;99004.53;1774928;78;21005;-51
2022/04/23 06:25:15;;;;;;;1.87;1.75;;;;;;;10.17;73.99;99019.44;1776339;78;21195;-51
2022/04/23 06:27:41;;;;;;;2.75;2.00;;;;;;;10.23;73.87;99011.03;1776740;78;20926;-52
2022/04/23 06:30:09;;;;;;;2.02;1.57;;;;;;;10.30;73.54;99011.06;1776206;78;21682;-53
2022/04/23 06:32:38;;;;;;;2.27;2.08;;;;;;;10.35;72.64;99007.64;1782034;78;21514;-52
2022/04/23 06:35:06;;;;;;;2.67;1.67;;;;;;;10.37;72.78;99008.90;1776211;78;21033;-51
2022/04/23 06:37:54;;;;;;;1.60;1.50;;;;;;;10.44;72.40;99012.48;1776508;78;21073;-52
2022/04/23 06:40:20;;;;;;;2.67;2.10;;;;;;;10.49;72.10;99007.67;1817470;77;21321;-51
2022/04/23 06:42:47;;;;;;;2.62;1.70;;;;;;;10.57;72.07;98999.14;1817827;77;22363;-54
2022/04/23 06:45:14;;;;;;;2.05;1.82;;;;;;;10.62;72.07;98994.37;1824255;77;21499;-52
2022/04/23 06:47:42;;;;;;;4.67;1.80;;;;;;;10.68;71.72;98997.16;1819404;77;21029;-51
2022/04/23 06:50:09;;;;;;;3.80;1.55;;;;;;;10.73;71.55;98996.38;1748196;81;21060;-53
2022/04/23 06:52:36;;;;;;;1.72;1.52;;;;;;;10.82;71.05;98986.41;1771842;80;21463;-53
2022/04/23 06:55:04;;;;;;;3.58;2.10;;;;;;;10.88;71.05;98995.00;1777337;80;21384;-52
2022/04/23 06:57:31;;;;;;;1.20;1.10;;;;;;;10.97;70.66;98999.78;1757333;80;21981;-52
2022/04/23 07:00:01;;;;;;;2.30;1.72;;;;;;;11.07;70.52;98994.70;1780629;80;21722;-55
2022/04/23 07:02:29;;;;;;;2.17;2.05;;;;;;;11.17;69.45;98991.83;1749383;81;21072;-55
2022/04/23 07:04:56;;;;;;;1.77;1.67;;;;;;;11.23;68.97;98988.73;1782357;80;21060;-52
2022/04/23 07:07:24;;;;;;;2.12;2.00;;;;;;;11.26;68.71;98988.55;1748527;81;21064;-52
2022/04/23 07:09:52;;;;;;;2.20;1.17;;;;;;;11.33;68.78;98988.55;1781031;80;20961;-52
2022/04/23 07:12:19;;;;;;;1.45;1.17;;;;;;;11.42;68.54;98976.80;1782264;80;21029;-52
2022/04/23 07:14:46;;;;;;;3.20;1.62;;;;;;;11.49;68.17;98979.00;1749808;81;22276;-52
2022/04/23 07:17:14;;;;;;;1.85;1.75;;;;;;;11.58;68.12;98972.16;1780934;80;21037;-52
2022/04/23 07:19:42;;;;;;;1.75;1.65;;;;;;;11.66;67.80;98968.48;1748999;80;21044;-52
2022/04/23 07:22:11;;;;;;;3.25;1.80;;;;;;;11.77;67.34;98968.69;1780337;80;21094;-52
2022/04/23 07:24:38;;;;;;;2.62;1.47;;;;;;;11.89;66.61;98963.84;1749855;80;21081;-51
2022/04/23 07:27:06;;;;;;;1.42;1.32;;;;;;;12.01;66.55;98952.71;1779022;80;21053;-52
2022/04/23 07:32:15;;;;;;;1.63;1.30;;;;;;;12.31;66.23;98945.75;1849858;75;23099;-53
2022/04/23 07:37:28;;;;;;;2.10;1.60;;;;;;;12.54;65.17;98944.17;1808265;77;21900;-53
2022/04/23 07:39:58;;;;;;;3.80;1.45;;;;;;;12.68;63.96;98937.31;1809394;77;22215;-54
2022/04/23 07:42:26;;;;;;;1.65;1.32;;;;;;;12.77;63.53;98918.64;1772877;78;20982;-53
2022/04/23 07:44:53;;;;;;;3.77;1.10;;;;;;;12.85;63.30;98932.47;1774145;78;21329;-53
2022/04/23 07:47:20;;;;;;;2.58;1.15;;;;;;;12.96;62.96;98930.37;1777804;78;20913;-52
2022/04/23 07:49:46;;;;;;;2.15;1.50;;;;;;;13.03;61.99;98926.73;1772799;78;21126;-53
2022/04/23 07:52:14;;;;;;;1.70;1.40;;;;;;;13.02;61.77;98925.87;1777209;78;20933;-53
2022/04/23 07:54:41;;;;;;;3.40;1.47;;;;;;;13.04;62.12;98909.55;1776125;78;21229;-53
2022/04/23 07:57:11;;;;;;;1.72;1.32;;;;;;;13.25;61.53;98921.09;1775416;78;21372;-52
2022/04/23 07:59:41;;;;;;;1.30;1.17;;;;;;;13.33;61.44;98916.48;1772610;80;20957;-53
2022/04/23 08:02:09;;;;;;;2.10;1.17;;;;;;;13.40;60.85;98906.08;1761084;80;20909;-52
2022/04/23 08:04:37;;;;;;;1.30;1.10;;;;;;;13.40;60.85;98906.08;1739607;81;20914;-53
2022/04/23 08:07:04;;;;;;;1.22;1.05;;;;;;;13.49;60.78;98912.16;1741195;81;21407;-53
2022/04/23 08:09:37;;;;;;;2.12;1.20;;;;;;;13.58;59.27;98916.41;1742987;81;21653;-53
2022/04/23 08:12:02;;;;;;;1.25;1.15;;;;;;;13.62;58.27;98903.51;1741669;81;21435;-53
2022/04/23 08:14:31;;;;;;;1.07;0.93;;;;;;;13.64;56.73;98906.97;1738649;81;21187;-53
2022/04/23 08:16:57;;;;;;;1.90;1.25;;;;;;;13.60;56.90;98905.48;1739227;81;20958;-54
2022/04/23 08:19:24;;;;;;;1.70;0.88;;;;;;;13.58;56.51;98898.84;1739920;81;20964;-53
2022/04/23 08:21:52;;;;;;;0.85;0.85;;;;;;;13.59;57.07;98898.34;1738066;81;20894;-53
2022/04/23 08:24:19;;;;;;;2.40;1.07;;;;;;;13.62;56.64;98898.09;1739515;81;21343;-53
2022/04/23 08:26:45;;;;;;;2.37;0.80;;;;;;;13.68;56.91;98892.75;1739866;81;21720;-53
2022/04/23 08:31:58;;;;;;;1.30;1.00;;;;;;;13.79;54.49;98889.59;1739608;80;21104;-53
2022/04/23 08:34:26;;;;;;;1.50;0.85;;;;;;;13.80;54.69;98897.22;1749150;80;21056;-52
2022/04/23 08:36:53;;;;;;;0.93;0.80;;;;;;;13.78;54.89;98887.86;1737853;81;21450;-53
2022/04/23 08:39:21;;;;;;;0.80;0.80;;;;;;;13.85;54.87;98882.88;1737864;80;21053;-53
2022/04/23 08:44:05;;;;;;;1.47;0.90;;;;;;;14.00;54.56;98874.47;1796454;78;26144;-52
2022/04/23 08:46:38;;;;;;;1.98;0.80;;;;;;;14.03;54.42;98862.03;1774015;80;21325;-52
2022/04/23 08:49:16;;;;;;;3.12;0.80;;;;;;;14.10;54.37;98865.65;1771503;80;21591;-53
2022/04/23 08:51:49;;;;;;;0.90;0.80;;;;;;;14.16;54.63;98861.97;1772118;80;21472;-52
2022/04/23 08:54:18;;;;;;;1.42;0.80;;;;;;;14.22;53.98;98864.20;1770106;80;22094;-52
2022/04/23 08:56:46;;;;;;;1.05;0.95;;;;;;;14.27;53.46;98860.66;1766754;80;21057;-53
2022/04/23 08:59:14;;;;;;;0.75;0.75;;;;;;;14.30;53.77;98865.82;1754010;80;21029;-53
2022/04/23 09:01:44;;;;;;;1.45;0.70;;;;;;;14.32;53.55;98861.16;1751205;80;21029;-52
2022/04/23 09:04:12;;;;;;;0.82;0.80;;;;;;;14.33;53.44;98856.13;1758382;80;21842;-52
2022/04/23 09:06:44;;;;;;;1.17;0.70;;;;;;;14.35;53.65;98856.88;1752969;80;21510;-52
2022/04/23 09:09:20;;;;;;;2.27;1.25;;;;;;;14.37;53.17;98844.58;1751627;80;21029;-52
2022/04/23 09:11:56;;;;;;;0.80;0.70;;;;;;;14.36;53.21;98853.67;1750723;80;21038;-52
2022/04/23 09:14:28;;;;;;;0.82;0.70;;;;;;;14.31;53.21;98849.95;1754475;80;21822;-53
2022/04/23 09:25:35;;;;;;;0.90;0.70;;;;;;;14.13;52.99;98847.31;1676555;83;21344;-52
2022/04/23 09:28:23;;;;;;;2.52;0.70;;;;;;;14.17;53.75;98833.93;1692850;83;21417;-52
2022/04/23 09:30:54;;;;;;;1.00;0.90;;;;;;;14.28;54.04;98825.85;1692138;83;21383;-54
2022/04/23 09:33:30;;;;;;;2.55;0.60;;;;;;;14.42;52.84;98817.16;1693355;83;21520;-53
2022/04/23 09:36:04;;;;;;;3.58;0.70;;;;;;;14.51;52.73;98823.20;1689689;83;21062;-53
2022/04/23 09:38:31;;;;;;;1.17;0.70;;;;;;;14.61;51.79;98806.12;1692528;83;21089;-53
2022/04/23 09:41:15;;;;;;;0.68;0.68;;;;;;;14.69;51.52;98806.37;1692525;83;21056;-52
2022/04/23 09:43:32;;;;;;;3.52;0.60;;;;;;;14.75;51.27;98803.64;1672113;83;21016;-53
2022/04/23 09:46:03;;;;;;;1.05;0.60;;;;;;;14.76;51.15;98790.48;1667923;85;21121;-52
2022/04/23 09:48:31;;;;;;;0.80;0.60;;;;;;;14.77;50.66;98808.45;1666997;85;21109;-52
2022/04/23 09:50:59;;;;;;;0.72;0.60;;;;;;;14.77;50.91;98797.63;1670234;85;21078;-54
2022/04/23 09:53:28;;;;;;;0.60;0.50;;;;;;;14.78;50.88;98800.70;1668790;85;21140;-54
2022/04/23 09:55:59;;;;;;;0.78;0.60;;;;;;;14.77;49.72;98789.50;1671025;85;21353;-54
2022/04/23 09:58:33;;;;;;;0.60;0.60;;;;;;;14.75;49.78;98792.32;1669526;85;21409;-54
2022/04/23 10:01:00;;;;;;;0.57;0.57;;;;;;;14.75;49.83;98786.04;1670278;85;21468;-53
2022/04/23 10:03:29;;;;;;;0.90;0.53;;;;;;;14.76;49.75;98783.70;1670092;85;21819;-54
2022/04/23 10:05:58;;;;;;;0.50;0.50;;;;;;;14.80;48.95;98787.88;1668215;85;21489;-54
2022/04/23 10:08:27;;;;;;;0.70;0.70;;;;;;;14.83;48.92;98783.58;1671304;85;21382;-55
2022/04/23 10:11:08;;;;;;;0.50;0.40;;;;;;;14.85;49.05;98780.25;1668587;85;21027;-53
2022/04/23 10:13:39;;;;;;;3.35;0.50;;;;;;;14.92;48.70;98775.19;1667891;85;21502;-54
2022/04/23 10:16:07;;;;;;;0.88;0.62;;;;;;;15.02;48.45;98766.69;1668967;85;21059;-54
2022/04/23 10:18:38;;;;;;;0.60;0.50;;;;;;;15.16;48.97;98770.47;1644865;85;21358;-54
2022/04/23 10:21:09;;;;;;;0.80;0.60;;;;;;;15.31;47.76;98757.52;1671082;85;21082;-54
2022/04/23 10:23:58;;;;;;;0.70;0.50;;;;;;;15.45;47.54;98756.72;1675652;84;21091;-53
2022/04/23 10:26:48;;;;;;;1.15;0.45;;;;;;;15.57;47.17;98753.48;1660812;85;21945;-54
2022/04/23 10:29:21;;;;;;;0.80;0.47;;;;;;;15.69;46.44;98750.24;1689811;83;21108;-54
2022/04/23 10:32:13;;;;;;;0.57;0.50;;;;;;;15.79;46.68;98750.70;1729448;82;21696;-54
2022/04/23 10:34:41;;;;;;;1.12;0.60;;;;;;;15.92;46.62;98734.20;1726514;82;20907;-54
2022/04/23 10:37:28;;;;;;;0.50;0.50;;;;;;;16.05;45.45;98730.81;1731627;82;20899;-54
2022/04/23 10:39:58;;;;;;;0.50;0.50;;;;;;;16.14;45.23;98735.45;1730373;82;21352;-53
2022/04/23 10:42:26;;;;;;;2.17;0.40;;;;;;;16.22;46.08;98730.20;1732522;80;20934;-53
2022/04/23 10:44:56;;;;;;;2.45;0.50;;;;;;;16.33;45.29;98737.92;1747129;81;21412;-54
2022/04/23 10:47:39;;;;;;;0.53;0.50;;;;;;;16.42;45.59;98730.29;1747056;81;21332;-52
2022/04/23 10:50:23;;;;;;;0.50;0.50;;;;;;;16.45;44.23;98723.23;1747020;81;20903;-53
2022/04/23 10:52:51;;;;;;;0.40;0.40;;;;;;;16.48;44.09;98719.77;1745484;81;21416;-54
2022/04/23 10:55:18;;;;;;;0.55;0.50;;;;;;;16.48;44.17;98727.05;1742397;81;20883;-54
2022/04/23 10:57:53;;;;;;;0.75;0.47;;;;;;;16.48;43.64;98725.70;1742353;81;21216;-54
2022/04/23 11:00:21;;;;;;;0.40;0.40;;;;;;;16.45;43.81;98723.23;1745781;81;21400;-54
2022/04/23 11:03:07;;;;;;;0.50;0.30;;;;;;;16.45;43.92;98713.73;1745356;81;21344;-53
2022/04/23 11:14:00;;;;;;;2.02;0.40;;;;;;;16.70;43.22;98708.36;1744687;81;20898;-54
2022/04/23 11:16:29;;;;;;;0.78;0.40;;;;;;;16.76;43.09;98707.30;1672601;81;20939;-53
2022/04/23 11:18:59;;;;;;;3.30;0.50;;;;;;;16.79;43.11;98703.46;1747387;81;20966;-54
2022/04/23 11:21:27;;;;;;;1.27;0.35;;;;;;;16.81;42.90;98701.47;1746143;81;21430;-55
2022/04/23 11:23:57;;;;;;;1.95;0.50;;;;;;;16.81;42.26;98712.34;1743621;81;20918;-53
2022/04/23 11:26:46;;;;;;;0.40;0.40;;;;;;;16.76;42.38;98715.98;1747245;81;21551;-53
2022/04/23 11:29:15;;;;;;;0.72;0.40;;;;;;;16.73;42.43;98699.95;1744699;81;20982;-54
2022/04/23 11:31:58;;;;;;;0.47;0.30;;;;;;;16.69;41.85;98702.56;1743148;81;21526;-53
2022/04/23 11:34:29;;;;;;;0.30;0.30;;;;;;;16.62;42.19;98700.91;1743869;81;21281;-54
2022/04/23 11:36:56;;;;;;;1.20;0.40;;;;;;;16.63;42.08;98689.91;1743392;81;21212;-54
2022/04/23 11:39:30;;;;;;;0.40;0.40;;;;;;;16.67;42.20;98693.22;1718228;81;21017;-54
2022/04/23 11:41:56;;;;;;;0.45;0.40;;;;;;;16.70;42.30;98689.34;1746218;81;21800;-54
2022/04/23 11:47:09;;;;;;;0.50;0.40;;;;;;;16.76;41.53;98676.59;1712505;82;20949;-55
2022/04/23 11:49:36;;;;;;;1.22;0.40;;;;;;;16.80;41.48;98671.22;1711084;82;21424;-55
2022/04/23 11:52:11;;;;;;;0.60;0.40;;;;;;;16.85;41.71;98644.47;1712341;82;21048;-54
2022/04/23 11:54:43;;;;;;;1.72;0.30;;;;;;;16.91;41.87;98662.45;1711935;82;20891;-53
2022/04/23 11:57:13;;;;;;;2.33;0.40;;;;;;;17.02;42.07;98649.22;1710345;81;21449;-52
2022/04/23 11:59:42;;;;;;;0.40;0.35;;;;;;;17.15;42.27;98651.18;1715092;81;21026;-53
2022/04/23 12:02:18;;;;;;;1.92;0.40;;;;;;;17.27;41.14;98641.00;1714454;82;21036;-54
2022/04/23 12:04:45;;;;;;;0.80;0.40;;;;;;;17.35;41.55;98646.09;1712130;82;21338;-53
2022/04/23 12:07:14;;;;;;;0.40;0.30;;;;;;;17.46;40.89;98645.09;1714460;82;20938;-54
2022/04/23 12:09:47;;;;;;;0.72;0.40;;;;;;;17.52;40.47;98641.81;1715307;82;20894;-55
2022/04/23 12:12:19;;;;;;;1.70;0.40;;;;;;;17.56;39.87;98634.20;1710177;82;27901;-54
2022/04/23 12:14:51;;;;;;;0.93;0.40;;;;;;;17.58;39.54;98625.41;1712296;82;21161;-53
2022/04/23 12:17:25;;;;;;;0.50;0.30;;;;;;;17.60;39.71;98640.59;1710656;82;20928;-54
2022/04/23 12:19:54;;;;;;;1.72;0.40;;;;;;;17.64;39.80;98635.23;1710735;82;22845;-54
2022/04/23 12:22:28;;;;;;;1.25;0.40;;;;;;;17.67;39.47;98634.95;1720670;81;20883;-55
2022/04/23 12:25:18;;;;;;;0.53;0.30;;;;;;;17.69;38.66;98634.81;1714721;82;20915;-55